sensor_id;sensor_type;location;lat;lon;timestamp;pressure;altitude;pressure_sealevel;temperature;humidity
77737;BME280;66903;59.926;30.404;2023-03-20T00:02:17;101333.75;;;25.63;30.35
77737;BME280;66903;59.926;30.404;2023-03-20T00:07:18;101323.22;;;25.59;30.27
77737;BME280;66903;59.926;30.404;2023-03-20T00:12:23;101309.22;;;25.57;30.38
77737;BME280;66903;59.926;30.404;2023-03-20T00:17:37;101319.06;;;25.75;29.78
77737;BME280;66903;59.926;30.404;2023-03-20T00:22:57;101312.66;;;25.59;30.43
77737;BME280;66903;59.926;30.404;2023-03-20T00:27:57;101318.94;;;25.56;30.35
77737;BME280;66903;59.926;30.404;2023-03-20T00:32:58;101309.53;;;25.56;30.67
77737;BME280;66903;59.926;30.404;2023-03-20T00:37:58;101306.13;;;25.54;30.45
77737;BME280;66903;59.926;30.404;2023-03-20T00:43:01;101301.25;;;25.54;30.49
77737;BME280;66903;59.926;30.404;2023-03-20T00:48:02;101303.25;;;25.54;30.32
77737;BME280;66903;59.926;30.404;2023-03-20T00:53:02;101288.09;;;25.53;30.34
77737;BME280;66903;59.926;30.404;2023-03-20T00:58:03;101287.78;;;25.55;30.29
77737;BME280;66903;59.926;30.404;2023-03-20T01:03:14;101280.94;;;25.56;30.28
77737;BME280;66903;59.926;30.404;2023-03-20T01:08:20;101280.38;;;25.54;30.27
77737;BME280;66903;59.926;30.404;2023-03-20T01:13:26;101271.78;;;25.54;30.25
77737;BME280;66903;59.926;30.404;2023-03-20T01:18:27;101270.94;;;25.53;30.43
77737;BME280;66903;59.926;30.404;2023-03-20T01:23:27;101264.34;;;25.53;30.02
77737;BME280;66903;59.926;30.404;2023-03-20T01:28:29;101270.94;;;25.53;30.06
77737;BME280;66903;59.926;30.404;2023-03-20T01:33:30;101264.34;;;25.53;30.15
77737;BME280;66903;59.926;30.404;2023-03-20T01:38:31;101264.34;;;25.53;30.26
77737;BME280;66903;59.926;30.404;2023-03-20T01:43:32;101272.91;;;25.53;30.00
77737;BME280;66903;59.926;30.404;2023-03-20T01:59:07;101240.31;;;25.54;29.94
77737;BME280;66903;59.926;30.404;2023-03-20T02:04:10;101227.72;;;25.55;29.93
77737;BME280;66903;59.926;30.404;2023-03-20T02:09:13;101233.44;;;25.55;29.79
77737;BME280;66903;59.926;30.404;2023-03-20T02:14:14;101235.16;;;25.56;30.01
77737;BME280;66903;59.926;30.404;2023-03-20T02:30:26;101221.41;;;25.58;29.92
77737;BME280;66903;59.926;30.404;2023-03-20T02:41:20;101191.69;;;25.54;30.01
77737;BME280;66903;59.926;30.404;2023-03-20T02:51:40;101201.78;;;25.70;29.39
77737;BME280;66903;59.926;30.404;2023-03-20T03:02:08;101199.97;;;25.55;29.91
77737;BME280;66903;59.926;30.404;2023-03-20T03:07:12;101198.53;;;25.53;30.02
77737;BME280;66903;59.926;30.404;2023-03-20T03:12:18;101194.84;;;25.52;29.91
77737;BME280;66903;59.926;30.404;2023-03-20T03:17:22;101187.41;;;25.51;29.68
77737;BME280;66903;59.926;30.404;2023-03-20T03:22:24;101191.44;;;25.50;29.71
77737;BME280;66903;59.926;30.404;2023-03-20T03:27:31;101180.84;;;25.51;29.94
77737;BME280;66903;59.926;30.404;2023-03-20T03:32:36;101183.16;;;25.49;29.85
77737;BME280;66903;59.926;30.404;2023-03-20T03:43:09;101189.72;;;25.49;30.01
77737;BME280;66903;59.926;30.404;2023-03-20T03:48:19;101184.06;;;25.44;29.82
77737;BME280;66903;59.926;30.404;2023-03-20T03:53:24;101185.47;;;25.47;30.26
77737;BME280;66903;59.926;30.404;2023-03-20T03:58:35;101181.44;;;25.48;29.95
77737;BME280;66903;59.926;30.404;2023-03-20T04:03:42;101187.16;;;25.48;29.97
77737;BME280;66903;59.926;30.404;2023-03-20T04:08:43;101180.38;;;25.44;29.75
77737;BME280;66903;59.926;30.404;2023-03-20T04:13:46;101172.38;;;25.41;29.75
77737;BME280;66903;59.926;30.404;2023-03-20T04:18:47;101158.47;;;25.29;29.94
77737;BME280;66903;59.926;30.404;2023-03-20T04:23:48;101150.53;;;25.21;30.09
77737;BME280;66903;59.926;30.404;2023-03-20T04:28:48;101150.66;;;25.11;30.02
77737;BME280;66903;59.926;30.404;2023-03-20T04:33:49;101130.16;;;25.04;30.36
77737;BME280;66903;59.926;30.404;2023-03-20T04:38:50;101141.91;;;25.02;30.38
77737;BME280;66903;59.926;30.404;2023-03-20T04:43:50;101146.47;;;25.03;30.40
77737;BME280;66903;59.926;30.404;2023-03-20T04:48:51;101134.44;;;25.06;30.51
77737;BME280;66903;59.926;30.404;2023-03-20T04:53:51;101133.88;;;25.04;30.11
77737;BME280;66903;59.926;30.404;2023-03-20T04:58:52;101137.34;;;25.01;30.27
77737;BME280;66903;59.926;30.404;2023-03-20T05:03:52;101132.16;;;25.03;30.42
77737;BME280;66903;59.926;30.404;2023-03-20T05:08:59;101134.75;;;25.05;30.37
77737;BME280;66903;59.926;30.404;2023-03-20T05:14:00;101133.47;;;25.16;30.06
77737;BME280;66903;59.926;30.404;2023-03-20T05:19:00;101124.31;;;25.43;30.31
77737;BME280;66903;59.926;30.404;2023-03-20T05:24:01;101122.00;;;25.45;29.75
77737;BME280;66903;59.926;30.404;2023-03-20T05:29:01;101128.03;;;25.43;29.53
77737;BME280;66903;59.926;30.404;2023-03-20T05:34:02;101130.09;;;25.38;29.64
77737;BME280;66903;59.926;30.404;2023-03-20T05:39:03;101128.13;;;25.33;29.33
77737;BME280;66903;59.926;30.404;2023-03-20T05:44:04;101132.75;;;25.29;29.35
77737;BME280;66903;59.926;30.404;2023-03-20T05:49:04;101126.78;;;25.26;29.31
77737;BME280;66903;59.926;30.404;2023-03-20T05:54:05;101116.00;;;25.17;29.70
77737;BME280;66903;59.926;30.404;2023-03-20T05:59:06;101110.91;;;25.14;29.54
77737;BME280;66903;59.926;30.404;2023-03-20T06:04:06;101116.00;;;25.17;29.51
77737;BME280;66903;59.926;30.404;2023-03-20T06:09:07;101109.69;;;25.21;29.20
77737;BME280;66903;59.926;30.404;2023-03-20T06:14:08;101106.22;;;25.24;28.99
77737;BME280;66903;59.926;30.404;2023-03-20T06:19:08;101106.69;;;25.31;29.10
77737;BME280;66903;59.926;30.404;2023-03-20T06:24:09;101094.91;;;25.37;28.79
77737;BME280;66903;59.926;30.404;2023-03-20T06:29:09;101089.44;;;25.41;28.35
77737;BME280;66903;59.926;30.404;2023-03-20T06:34:10;101094.72;;;25.52;28.85
77737;BME280;66903;59.926;30.404;2023-03-20T06:39:10;101086.69;;;25.73;28.67
77737;BME280;66903;59.926;30.404;2023-03-20T06:44:11;101079.50;;;25.75;28.63
77737;BME280;66903;59.926;30.404;2023-03-20T06:49:12;101078.28;;;26.18;28.36
77737;BME280;66903;59.926;30.404;2023-03-20T06:54:12;101082.59;;;26.35;27.88
77737;BME280;66903;59.926;30.404;2023-03-20T06:59:13;101084.78;;;26.24;28.09
77737;BME280;66903;59.926;30.404;2023-03-20T07:04:14;101085.03;;;26.09;28.31
77737;BME280;66903;59.926;30.404;2023-03-20T07:09:14;101066.53;;;26.01;28.04
77737;BME280;66903;59.926;30.404;2023-03-20T07:14:16;101067.69;;;25.82;28.29
77737;BME280;66903;59.926;30.404;2023-03-20T07:19:18;101064.50;;;25.65;28.72
77737;BME280;66903;59.926;30.404;2023-03-20T07:24:18;101069.06;;;25.66;28.54
77737;BME280;66903;59.926;30.404;2023-03-20T07:29:19;101055.38;;;25.81;28.50
77737;BME280;66903;59.926;30.404;2023-03-20T07:34:19;101067.84;;;25.90;28.78
77737;BME280;66903;59.926;30.404;2023-03-20T07:39:20;101062.66;;;25.92;28.45
77737;BME280;66903;59.926;30.404;2023-03-20T07:44:21;101047.47;;;25.92;28.83
77737;BME280;66903;59.926;30.404;2023-03-20T07:49:22;101046.31;;;25.93;28.90
77737;BME280;66903;59.926;30.404;2023-03-20T07:54:23;101049.16;;;25.93;28.37
77737;BME280;66903;59.926;30.404;2023-03-20T07:59:23;101037.72;;;25.93;28.72
77737;BME280;66903;59.926;30.404;2023-03-20T08:04:24;101036.88;;;25.92;28.71
77737;BME280;66903;59.926;30.404;2023-03-20T08:09:25;101026.25;;;25.93;28.84
77737;BME280;66903;59.926;30.404;2023-03-20T08:14:25;101020.25;;;25.94;28.45
77737;BME280;66903;59.926;30.404;2023-03-20T08:19:26;101006.69;;;26.00;28.61
77737;BME280;66903;59.926;30.404;2023-03-20T08:24:26;101010.56;;;26.09;28.42
77737;BME280;66903;59.926;30.404;2023-03-20T08:29:27;101004.25;;;26.12;28.89
77737;BME280;66903;59.926;30.404;2023-03-20T08:34:27;101007.00;;;26.17;28.74
77737;BME280;66903;59.926;30.404;2023-03-20T08:39:28;101004.06;;;26.22;28.61
77737;BME280;66903;59.926;30.404;2023-03-20T08:44:28;100997.78;;;26.20;28.77
77737;BME280;66903;59.926;30.404;2023-03-20T08:49:29;101001.81;;;26.19;28.71
77737;BME280;66903;59.926;30.404;2023-03-20T08:54:30;100987.41;;;26.24;29.01
77737;BME280;66903;59.926;30.404;2023-03-20T08:59:38;100985.13;;;26.40;29.02
77737;BME280;66903;59.926;30.404;2023-03-20T09:04:38;100985.13;;;26.53;29.24
77737;BME280;66903;59.926;30.404;2023-03-20T09:09:39;100980.94;;;26.91;29.07
77737;BME280;66903;59.926;30.404;2023-03-20T09:14:40;100981.81;;;28.57;28.18
77737;BME280;66903;59.926;30.404;2023-03-20T09:19:41;100968.50;;;30.71;26.76
77737;BME280;66903;59.926;30.404;2023-03-20T09:24:44;100964.09;;;31.11;25.62
77737;BME280;66903;59.926;30.404;2023-03-20T09:29:45;100959.22;;;30.57;25.94
77737;BME280;66903;59.926;30.404;2023-03-20T09:34:46;100953.53;;;30.31;26.35
77737;BME280;66903;59.926;30.404;2023-03-20T09:39:46;100937.78;;;30.28;26.18
77737;BME280;66903;59.926;30.404;2023-03-20T09:55:31;100940.44;;;36.16;22.70
77737;BME280;66903;59.926;30.404;2023-03-20T10:00:33;100929.56;;;36.96;21.98
77737;BME280;66903;59.926;30.404;2023-03-20T10:05:45;100921.28;;;36.98;21.89
77737;BME280;66903;59.926;30.404;2023-03-20T10:10:54;100911.09;;;36.43;22.38
77737;BME280;66903;59.926;30.404;2023-03-20T10:21:34;100898.50;;;37.82;21.87
77737;BME280;66903;59.926;30.404;2023-03-20T10:26:37;100885.69;;;39.00;21.05
77737;BME280;66903;59.926;30.404;2023-03-20T10:32:22;100883.50;;;40.06;20.31
77737;BME280;66903;59.926;30.404;2023-03-20T10:42:55;100868.25;;;41.00;19.40
77737;BME280;66903;59.926;30.404;2023-03-20T10:47:59;100854.00;;;41.06;19.65
77737;BME280;66903;59.926;30.404;2023-03-20T10:53:01;100845.63;;;40.94;19.50
77737;BME280;66903;59.926;30.404;2023-03-20T10:58:19;100845.59;;;40.69;19.74
77737;BME280;66903;59.926;30.404;2023-03-20T11:03:26;100839.63;;;40.16;19.58
77737;BME280;66903;59.926;30.404;2023-03-20T11:08:34;100824.81;;;39.74;19.55
77737;BME280;66903;59.926;30.404;2023-03-20T11:13:42;100812.47;;;39.37;19.58
77737;BME280;66903;59.926;30.404;2023-03-20T11:18:43;100809.59;;;38.86;19.99
77737;BME280;66903;59.926;30.404;2023-03-20T11:23:44;100803.38;;;38.44;20.36
77737;BME280;66903;59.926;30.404;2023-03-20T11:28:51;100802.97;;;38.09;20.30
77737;BME280;66903;59.926;30.404;2023-03-20T11:44:38;100775.47;;;37.14;21.48
77737;BME280;66903;59.926;30.404;2023-03-20T11:49:57;100760.16;;;36.68;20.86
77737;BME280;66903;59.926;30.404;2023-03-20T11:55:36;100765.69;;;36.50;21.74
77737;BME280;66903;59.926;30.404;2023-03-20T12:00:49;100756.19;;;36.08;21.52
77737;BME280;66903;59.926;30.404;2023-03-20T12:05:59;100749.97;;;35.68;21.54
77737;BME280;66903;59.926;30.404;2023-03-20T12:11:07;100738.75;;;35.28;22.03
77737;BME280;66903;59.926;30.404;2023-03-20T12:16:20;100735.59;;;34.99;21.95
77737;BME280;66903;59.926;30.404;2023-03-20T12:27:29;100721.34;;;34.59;22.66
77737;BME280;66903;59.926;30.404;2023-03-20T12:32:41;100714.97;;;34.53;22.49
77737;BME280;66903;59.926;30.404;2023-03-20T12:37:43;100711.44;;;34.60;22.81
77737;BME280;66903;59.926;30.404;2023-03-20T12:53:59;100689.03;;;33.95;23.04
77737;BME280;66903;59.926;30.404;2023-03-20T12:59:26;100683.72;;;33.69;22.86
77737;BME280;66903;59.926;30.404;2023-03-20T13:04:55;100675.03;;;33.53;23.02
77737;BME280;66903;59.926;30.404;2023-03-20T13:20:49;100650.47;;;32.80;22.76
77737;BME280;66903;59.926;30.404;2023-03-20T13:26:11;100635.56;;;32.66;23.12
77737;BME280;66903;59.926;30.404;2023-03-20T13:31:36;100637.81;;;32.45;23.35
77737;BME280;66903;59.926;30.404;2023-03-20T13:41:47;100625.00;;;32.34;23.16
77737;BME280;66903;59.926;30.404;2023-03-20T13:52:10;100610.00;;;32.16;23.50
77737;BME280;66903;59.926;30.404;2023-03-20T14:07:43;100606.13;;;31.76;23.95
77737;BME280;66903;59.926;30.404;2023-03-20T14:12:47;100598.94;;;31.70;24.12
77737;BME280;66903;59.926;30.404;2023-03-20T14:17:49;100586.03;;;31.56;24.33
77737;BME280;66903;59.926;30.404;2023-03-20T14:22:51;100583.88;;;31.40;24.16
77737;BME280;66903;59.926;30.404;2023-03-20T14:28:05;100568.91;;;31.26;24.44
77737;BME280;66903;59.926;30.404;2023-03-20T14:48:33;100538.78;;;30.71;24.86
77737;BME280;66903;59.926;30.404;2023-03-20T14:53:38;100536.38;;;30.73;24.47
77737;BME280;66903;59.926;30.404;2023-03-20T14:58:50;100530.63;;;30.40;24.90
77737;BME280;66903;59.926;30.404;2023-03-20T15:03:56;100522.50;;;30.13;25.01
77737;BME280;66903;59.926;30.404;2023-03-20T15:08:59;100523.88;;;29.95;24.59
77737;BME280;66903;59.926;30.404;2023-03-20T15:14:05;100517.16;;;29.24;25.76
77737;BME280;66903;59.926;30.404;2023-03-20T15:19:17;100510.88;;;28.84;26.09
77737;BME280;66903;59.926;30.404;2023-03-20T15:24:20;100513.13;;;28.53;26.44
77737;BME280;66903;59.926;30.404;2023-03-20T15:29:22;100504.69;;;28.31;26.73
77737;BME280;66903;59.926;30.404;2023-03-20T15:34:29;100499.78;;;28.14;27.04
77737;BME280;66903;59.926;30.404;2023-03-20T15:39:42;100494.06;;;27.97;26.97
77737;BME280;66903;59.926;30.404;2023-03-20T15:44:47;100486.41;;;27.84;27.17
77737;BME280;66903;59.926;30.404;2023-03-20T15:49:53;100482.53;;;27.72;28.25
77737;BME280;66903;59.926;30.404;2023-03-20T15:54:55;100485.06;;;27.82;26.58
77737;BME280;66903;59.926;30.404;2023-03-20T15:59:57;100476.59;;;27.60;28.58
77737;BME280;66903;59.926;30.404;2023-03-20T16:04:58;100467.47;;;27.49;28.75
77737;BME280;66903;59.926;30.404;2023-03-20T16:09:58;100455.97;;;27.41;29.17
77737;BME280;66903;59.926;30.404;2023-03-20T16:14:59;100463.94;;;27.35;29.64
77737;BME280;66903;59.926;30.404;2023-03-20T16:20:00;100456.94;;;27.27;29.61
77737;BME280;66903;59.926;30.404;2023-03-20T16:25:01;100450.34;;;27.18;29.56
77737;BME280;66903;59.926;30.404;2023-03-20T16:30:08;100456.91;;;27.10;29.47
77737;BME280;66903;59.926;30.404;2023-03-20T16:35:19;100463.09;;;27.04;29.66
77737;BME280;66903;59.926;30.404;2023-03-20T16:40:35;100449.25;;;26.97;29.61
77737;BME280;66903;59.926;30.404;2023-03-20T16:45:36;100451.78;;;26.90;29.86
77737;BME280;66903;59.926;30.404;2023-03-20T16:50:42;100436.91;;;26.88;30.01
77737;BME280;66903;59.926;30.404;2023-03-20T16:55:46;100446.19;;;26.85;29.83
77737;BME280;66903;59.926;30.404;2023-03-20T17:01:05;100446.84;;;26.82;30.00
77737;BME280;66903;59.926;30.404;2023-03-20T17:06:27;100444.00;;;26.82;29.49
77737;BME280;66903;59.926;30.404;2023-03-20T17:11:36;100437.91;;;26.75;29.82
77737;BME280;66903;59.926;30.404;2023-03-20T17:16:37;100431.66;;;26.73;29.86
77737;BME280;66903;59.926;30.404;2023-03-20T17:21:39;100422.72;;;26.75;29.91
77737;BME280;66903;59.926;30.404;2023-03-20T17:26:42;100428.78;;;26.73;29.85
77737;BME280;66903;59.926;30.404;2023-03-20T17:31:43;100429.13;;;26.72;29.66
77737;BME280;66903;59.926;30.404;2023-03-20T17:36:44;100417.13;;;26.70;29.52
77737;BME280;66903;59.926;30.404;2023-03-20T17:41:45;100408.88;;;26.68;29.69
77737;BME280;66903;59.926;30.404;2023-03-20T17:46:45;100405.78;;;26.65;29.56
77737;BME280;66903;59.926;30.404;2023-03-20T17:51:46;100394.63;;;26.63;29.58
77737;BME280;66903;59.926;30.404;2023-03-20T17:56:46;100391.91;;;26.58;29.77
77737;BME280;66903;59.926;30.404;2023-03-20T18:01:47;100380.63;;;26.53;29.80
77737;BME280;66903;59.926;30.404;2023-03-20T18:06:49;100387.34;;;26.49;29.52
77737;BME280;66903;59.926;30.404;2023-03-20T18:11:49;100379.09;;;26.47;29.49
77737;BME280;66903;59.926;30.404;2023-03-20T18:16:50;100371.66;;;26.46;29.90
77737;BME280;66903;59.926;30.404;2023-03-20T18:21:51;100366.44;;;26.48;30.29
77737;BME280;66903;59.926;30.404;2023-03-20T18:26:53;100381.81;;;26.52;29.99
77737;BME280;66903;59.926;30.404;2023-03-20T18:31:53;100368.63;;;26.51;30.23
77737;BME280;66903;59.926;30.404;2023-03-20T18:36:55;100358.88;;;26.52;30.19
77737;BME280;66903;59.926;30.404;2023-03-20T18:41:56;100360.03;;;26.51;30.31
77737;BME280;66903;59.926;30.404;2023-03-20T18:46:56;100356.03;;;26.52;30.52
77737;BME280;66903;59.926;30.404;2023-03-20T18:51:57;100343.38;;;26.53;30.77
77737;BME280;66903;59.926;30.404;2023-03-20T18:56:57;100344.56;;;26.52;30.63
77737;BME280;66903;59.926;30.404;2023-03-20T19:01:59;100334.59;;;26.50;31.32
77737;BME280;66903;59.926;30.404;2023-03-20T19:07:00;100336.31;;;26.51;32.44
77737;BME280;66903;59.926;30.404;2023-03-20T19:12:01;100326.84;;;26.50;32.68
77737;BME280;66903;59.926;30.404;2023-03-20T19:17:01;100324.00;;;26.50;32.81
77737;BME280;66903;59.926;30.404;2023-03-20T19:22:02;100324.00;;;26.50;33.17
77737;BME280;66903;59.926;30.404;2023-03-20T19:27:04;100329.72;;;26.50;32.88
77737;BME280;66903;59.926;30.404;2023-03-20T19:32:04;100323.31;;;26.53;33.37
77737;BME280;66903;59.926;30.404;2023-03-20T19:37:05;100311.53;;;26.55;33.19
77737;BME280;66903;59.926;30.404;2023-03-20T19:42:05;100298.38;;;26.54;33.26
77737;BME280;66903;59.926;30.404;2023-03-20T19:47:07;100298.38;;;26.54;33.05
77737;BME280;66903;59.926;30.404;2023-03-20T19:52:16;100299.25;;;26.54;32.83
77737;BME280;66903;59.926;30.404;2023-03-20T19:57:24;100285.91;;;26.50;32.63
77737;BME280;66903;59.926;30.404;2023-03-20T20:02:25;100284.56;;;26.47;32.50
77737;BME280;66903;59.926;30.404;2023-03-20T20:07:25;100278.31;;;26.45;32.15
77737;BME280;66903;59.926;30.404;2023-03-20T20:12:26;100274.63;;;26.53;32.22
77737;BME280;66903;59.926;30.404;2023-03-20T20:17:26;100274.28;;;26.63;32.20
77737;BME280;66903;59.926;30.404;2023-03-20T20:22:27;100273.00;;;26.69;31.74
77737;BME280;66903;59.926;30.404;2023-03-20T20:27:28;100287.69;;;26.76;31.88
77737;BME280;66903;59.926;30.404;2023-03-20T20:32:29;100274.03;;;26.82;31.95
77737;BME280;66903;59.926;30.404;2023-03-20T20:37:30;100277.94;;;26.86;33.01
77737;BME280;66903;59.926;30.404;2023-03-20T20:42:31;100267.97;;;26.92;33.64
77737;BME280;66903;59.926;30.404;2023-03-20T20:47:31;100269.84;;;26.96;33.64
77737;BME280;66903;59.926;30.404;2023-03-20T20:52:34;100267.16;;;27.00;33.84
77737;BME280;66903;59.926;30.404;2023-03-20T20:57:35;100267.63;;;27.02;34.08
77737;BME280;66903;59.926;30.404;2023-03-20T21:02:36;100276.91;;;27.07;31.76
77737;BME280;66903;59.926;30.404;2023-03-20T21:07:44;100272.50;;;25.89;31.25
77737;BME280;66903;59.926;30.404;2023-03-20T21:12:45;100264.38;;;24.18;32.18
77737;BME280;66903;59.926;30.404;2023-03-20T21:17:46;100267.31;;;22.89;33.45
77737;BME280;66903;59.926;30.404;2023-03-20T21:22:47;100278.56;;;21.91;34.39
77737;BME280;66903;59.926;30.404;2023-03-20T21:27:48;100268.97;;;21.25;35.17
77737;BME280;66903;59.926;30.404;2023-03-20T21:32:48;100270.19;;;20.80;35.00
77737;BME280;66903;59.926;30.404;2023-03-20T21:37:49;100269.84;;;20.43;35.09
77737;BME280;66903;59.926;30.404;2023-03-20T21:42:50;100273.97;;;20.12;35.26
77737;BME280;66903;59.926;30.404;2023-03-20T21:47:50;100276.84;;;19.92;37.76
77737;BME280;66903;59.926;30.404;2023-03-20T21:52:51;100282.03;;;20.92;37.90
77737;BME280;66903;59.926;30.404;2023-03-20T21:57:52;100268.81;;;22.21;36.80
77737;BME280;66903;59.926;30.404;2023-03-20T22:02:53;100256.00;;;23.16;36.22
77737;BME280;66903;59.926;30.404;2023-03-20T22:07:55;100264.47;;;23.85;35.67
77737;BME280;66903;59.926;30.404;2023-03-20T22:12:56;100257.91;;;24.39;35.25
77737;BME280;66903;59.926;30.404;2023-03-20T22:17:56;100265.72;;;24.74;34.72
77737;BME280;66903;59.926;30.404;2023-03-20T22:22:57;100260.13;;;25.05;34.66
77737;BME280;66903;59.926;30.404;2023-03-20T22:28:06;100259.78;;;25.29;34.39
77737;BME280;66903;59.926;30.404;2023-03-20T22:33:35;100261.84;;;25.50;33.60
77737;BME280;66903;59.926;30.404;2023-03-20T22:38:40;100258.03;;;25.63;33.90
77737;BME280;66903;59.926;30.404;2023-03-20T22:43:41;100260.31;;;25.75;34.14
77737;BME280;66903;59.926;30.404;2023-03-20T22:48:42;100251.44;;;25.85;33.84
77737;BME280;66903;59.926;30.404;2023-03-20T22:53:43;100248.25;;;25.95;33.97
77737;BME280;66903;59.926;30.404;2023-03-20T22:58:43;100251.19;;;26.03;33.96
77737;BME280;66903;59.926;30.404;2023-03-20T23:03:44;100245.84;;;26.10;33.66
77737;BME280;66903;59.926;30.404;2023-03-20T23:08:45;100251.91;;;26.17;34.11
77737;BME280;66903;59.926;30.404;2023-03-20T23:13:46;100250.94;;;26.22;33.76
77737;BME280;66903;59.926;30.404;2023-03-20T23:18:47;100239.69;;;26.26;33.69
77737;BME280;66903;59.926;30.404;2023-03-20T23:23:48;100237.00;;;26.29;33.97
77737;BME280;66903;59.926;30.404;2023-03-20T23:28:52;100247.78;;;26.32;33.66
77737;BME280;66903;59.926;30.404;2023-03-20T23:34:10;100236.16;;;26.37;33.41
77737;BME280;66903;59.926;30.404;2023-03-20T23:39:12;100249.31;;;26.38;33.95
77737;BME280;66903;59.926;30.404;2023-03-20T23:44:13;100239.88;;;26.38;34.05
77737;BME280;66903;59.926;30.404;2023-03-20T23:49:13;100234.31;;;26.41;33.94
77737;BME280;66903;59.926;30.404;2023-03-20T23:54:14;100243.75;;;26.42;34.17
77737;BME280;66903;59.926;30.404;2023-03-20T23:59:15;100234.31;;;26.41;33.74
